Caryville, TN (37714)

1:48 PM EST on December 09, 2016 (GMT -0500)
Rocky Top | | Change Station

Elev 1201 ft 36.22 °N, 84.14 °W | Updated 7 minutes ago

Partly Cloudy
Partly Cloudy
36.3 °F
Feels Like 33 °F
N
3.7
Wind Variable Wind from NE

Today
High -- | Low -- °F
--% Chance of Precip.
Yesterday
High -- | Low -- °F
Precip. -- in
Pressure 30.57 in
Visibility 10.0 miles
Clouds Clear
Windchill 33 °F
Dew Point 18 °F
Humidity 48%
Rainfall 0.00 in
Snow Depth Not available.
7:36 AM 5:21 PM
Waxing Gibbous, 76% visible
METAR KOQT 091753Z AUTO VRB03KT 10SM CLR 02/M10 A3052 RMK AO2 SLP352 T00171100 10017 21033 58014
Pressure 30.57 in
Visibility 10.0 miles
Clouds Clear
Windchill 33 °F
Dew Point 18 °F
Humidity 48%
Rainfall 0.00 in
Snow Depth Not available.
7:36 AM 5:21 PM
Waxing Gibbous, 76% visible
METAR KOQT 091753Z AUTO VRB03KT 10SM CLR 02/M10 A3052 RMK AO2 SLP352 T00171100 10017 21033 58014

10-Day Weather Forecast

Almanac

Astronomy

Dec. 09, 2016 Rise Set
Actual Time
Civil Twilight
Nautical Twilight
Astronomical Twilight
Moon
Length of Visible Light
Length of Day
Tomorrow will be .
, % of the Moon is Illuminated

Today's Extremes

State Highs State Lows

Community

WunderPhotos

Upload Photos

1,956,499 photos uploaded!

WunderBlog® & News

Nearby

Air Quality

  Air Quality AQ Index Pollutant
Not available.

Snow Depth

Station Depth Elevation

Earthquake Activity

City Distance Mag. Time & Date
Minimum magnitude displayed is 2.5.

Coastal Water Temperatures

Place Temperature

Stations

Nearby Weather Stations

Station Location Temp. Windchill Dew Point Humidity Wind Precip. Elev Updated Type
                   

Watches & Warnings

There are currently no watches in effect.